sensor_id;sensor_type;location;lat;lon;timestamp;P1;durP1;ratioP1;P2;durP2;ratioP2
18647;SDS011;9453;50.294;18.644;2024-03-22T05:01:05;12.30;;;6.40;;
18647;SDS011;9453;50.294;18.644;2024-03-22T05:03:32;12.73;;;6.40;;
18647;SDS011;9453;50.294;18.644;2024-03-22T05:05:58;14.10;;;6.00;;
18647;SDS011;9453;50.294;18.644;2024-03-22T05:08:28;12.93;;;6.23;;
18647;SDS011;9453;50.294;18.644;2024-03-22T05:10:54;12.50;;;6.07;;
18647;SDS011;9453;50.294;18.644;2024-03-22T05:13:21;13.83;;;6.30;;
18647;SDS011;9453;50.294;18.644;2024-03-22T05:15:46;10.93;;;6.00;;
18647;SDS011;9453;50.294;18.644;2024-03-22T05:18:15;12.13;;;6.30;;
18647;SDS011;9453;50.294;18.644;2024-03-22T05:20:41;10.47;;;5.43;;
18647;SDS011;9453;50.294;18.644;2024-03-22T05:23:08;15.03;;;5.83;;
18647;SDS011;9453;50.294;18.644;2024-03-22T05:25:34;11.57;;;5.60;;
18647;SDS011;9453;50.294;18.644;2024-03-22T05:28:01;9.50;;;5.13;;
18647;SDS011;9453;50.294;18.644;2024-03-22T05:30:27;12.43;;;5.60;;
18647;SDS011;9453;50.294;18.644;2024-03-22T05:32:54;13.47;;;6.07;;
18647;SDS011;9453;50.294;18.644;2024-03-22T05:35:21;11.13;;;5.50;;
18647;SDS011;9453;50.294;18.644;2024-03-22T05:37:48;11.23;;;5.13;;
18647;SDS011;9453;50.294;18.644;2024-03-22T05:40:14;21.47;;;5.60;;
18647;SDS011;9453;50.294;18.644;2024-03-22T05:42:41;16.53;;;5.23;;
18647;SDS011;9453;50.294;18.644;2024-03-22T05:45:07;9.20;;;4.50;;
18647;SDS011;9453;50.294;18.644;2024-03-22T05:47:35;14.97;;;5.50;;
18647;SDS011;9453;50.294;18.644;2024-03-22T05:50:02;13.43;;;5.43;;
18647;SDS011;9453;50.294;18.644;2024-03-22T05:52:33;9.30;;;4.60;;
18647;SDS011;9453;50.294;18.644;2024-03-22T05:54:59;11.77;;;5.80;;
18647;SDS011;9453;50.294;18.644;2024-03-22T05:57:26;9.97;;;5.70;;
18647;SDS011;9453;50.294;18.644;2024-03-22T05:59:52;12.20;;;5.53;;
18647;SDS011;9453;50.294;18.644;2024-03-22T06:02:19;14.77;;;6.23;;
18647;SDS011;9453;50.294;18.644;2024-03-22T06:04:45;12.50;;;5.43;;
18647;SDS011;9453;50.294;18.644;2024-03-22T06:07:12;15.43;;;6.47;;
18647;SDS011;9453;50.294;18.644;2024-03-22T06:09:41;14.27;;;6.77;;
18647;SDS011;9453;50.294;18.644;2024-03-22T06:12:12;20.10;;;6.80;;
18647;SDS011;9453;50.294;18.644;2024-03-22T06:14:38;13.53;;;6.60;;
18647;SDS011;9453;50.294;18.644;2024-03-22T06:17:06;11.57;;;6.33;;
18647;SDS011;9453;50.294;18.644;2024-03-22T06:19:32;20.17;;;6.27;;
18647;SDS011;9453;50.294;18.644;2024-03-22T06:21:59;14.80;;;6.67;;
18647;SDS011;9453;50.294;18.644;2024-03-22T06:24:25;12.60;;;6.40;;
18647;SDS011;9453;50.294;18.644;2024-03-22T06:26:53;14.17;;;6.73;;
18647;SDS011;9453;50.294;18.644;2024-03-22T06:29:19;22.73;;;6.30;;
18647;SDS011;9453;50.294;18.644;2024-03-22T06:31:46;12.80;;;6.37;;
18647;SDS011;9453;50.294;18.644;2024-03-22T06:34:12;17.53;;;6.93;;
18647;SDS011;9453;50.294;18.644;2024-03-22T06:36:39;14.70;;;6.10;;
18647;SDS011;9453;50.294;18.644;2024-03-22T06:39:05;21.10;;;7.33;;
18647;SDS011;9453;50.294;18.644;2024-03-22T06:41:32;11.30;;;6.07;;
18647;SDS011;9453;50.294;18.644;2024-03-22T06:43:59;17.37;;;6.43;;
18647;SDS011;9453;50.294;18.644;2024-03-22T06:46:26;15.47;;;6.43;;
18647;SDS011;9453;50.294;18.644;2024-03-22T06:48:52;20.17;;;6.77;;
18647;SDS011;9453;50.294;18.644;2024-03-22T06:51:19;13.10;;;6.07;;
18647;SDS011;9453;50.294;18.644;2024-03-22T06:53:45;14.30;;;6.17;;
18647;SDS011;9453;50.294;18.644;2024-03-22T06:56:13;20.47;;;7.30;;
18647;SDS011;9453;50.294;18.644;2024-03-22T06:58:39;19.43;;;6.80;;
18647;SDS011;9453;50.294;18.644;2024-03-22T07:01:07;16.50;;;7.13;;
18647;SDS011;9453;50.294;18.644;2024-03-22T07:03:33;12.07;;;6.50;;
18647;SDS011;9453;50.294;18.644;2024-03-22T07:06:00;12.97;;;6.50;;
18647;SDS011;9453;50.294;18.644;2024-03-22T07:08:26;14.77;;;7.37;;
18647;SDS011;9453;50.294;18.644;2024-03-22T07:10:53;13.00;;;6.33;;
18647;SDS011;9453;50.294;18.644;2024-03-22T07:13:19;13.60;;;6.80;;
18647;SDS011;9453;50.294;18.644;2024-03-22T07:15:46;13.83;;;6.67;;
18647;SDS011;9453;50.294;18.644;2024-03-22T07:18:14;14.13;;;6.17;;
18647;SDS011;9453;50.294;18.644;2024-03-22T07:20:41;13.63;;;6.67;;
18647;SDS011;9453;50.294;18.644;2024-03-22T07:23:07;14.00;;;6.73;;
18647;SDS011;9453;50.294;18.644;2024-03-22T07:25:34;14.40;;;6.93;;
18647;SDS011;9453;50.294;18.644;2024-03-22T07:28:00;14.10;;;6.90;;
18647;SDS011;9453;50.294;18.644;2024-03-22T07:30:27;13.63;;;7.13;;
18647;SDS011;9453;50.294;18.644;2024-03-22T07:32:53;14.17;;;7.37;;
18647;SDS011;9453;50.294;18.644;2024-03-22T07:35:21;16.07;;;6.80;;
18647;SDS011;9453;50.294;18.644;2024-03-22T07:37:47;14.47;;;7.43;;
18647;SDS011;9453;50.294;18.644;2024-03-22T07:40:14;22.77;;;7.10;;
18647;SDS011;9453;50.294;18.644;2024-03-22T07:42:40;17.40;;;7.23;;
18647;SDS011;9453;50.294;18.644;2024-03-22T07:45:07;13.33;;;7.13;;
18647;SDS011;9453;50.294;18.644;2024-03-22T07:47:34;15.10;;;7.30;;
18647;SDS011;9453;50.294;18.644;2024-03-22T07:50:01;24.50;;;7.33;;
18647;SDS011;9453;50.294;18.644;2024-03-22T07:52:28;14.30;;;7.10;;
18647;SDS011;9453;50.294;18.644;2024-03-22T07:54:55;13.73;;;7.27;;
18647;SDS011;9453;50.294;18.644;2024-03-22T07:57:21;44.37;;;7.83;;
18647;SDS011;9453;50.294;18.644;2024-03-22T07:59:49;14.27;;;7.67;;
18647;SDS011;9453;50.294;18.644;2024-03-22T08:02:15;15.30;;;6.63;;
18647;SDS011;9453;50.294;18.644;2024-03-22T08:04:42;15.00;;;7.13;;
18647;SDS011;9453;50.294;18.644;2024-03-22T08:07:07;21.17;;;7.00;;
18647;SDS011;9453;50.294;18.644;2024-03-22T08:09:36;17.47;;;6.20;;
18647;SDS011;9453;50.294;18.644;2024-03-22T08:12:02;13.53;;;6.83;;
18647;SDS011;9453;50.294;18.644;2024-03-22T08:14:29;35.73;;;7.60;;
18647;SDS011;9453;50.294;18.644;2024-03-22T08:16:55;16.20;;;7.80;;
18647;SDS011;9453;50.294;18.644;2024-03-22T08:19:22;15.00;;;7.37;;
18647;SDS011;9453;50.294;18.644;2024-03-22T08:21:48;13.60;;;6.80;;
18647;SDS011;9453;50.294;18.644;2024-03-22T08:24:15;16.73;;;7.03;;
18647;SDS011;9453;50.294;18.644;2024-03-22T08:26:42;17.20;;;7.20;;
18647;SDS011;9453;50.294;18.644;2024-03-22T08:29:11;11.63;;;6.00;;
18647;SDS011;9453;50.294;18.644;2024-03-22T08:31:38;14.07;;;6.40;;
18647;SDS011;9453;50.294;18.644;2024-03-22T08:34:04;11.23;;;5.93;;
18647;SDS011;9453;50.294;18.644;2024-03-22T08:36:30;11.43;;;5.67;;
18647;SDS011;9453;50.294;18.644;2024-03-22T08:38:57;12.27;;;6.40;;
18647;SDS011;9453;50.294;18.644;2024-03-22T08:41:23;12.23;;;6.23;;
18647;SDS011;9453;50.294;18.644;2024-03-22T08:43:52;15.53;;;5.93;;
18647;SDS011;9453;50.294;18.644;2024-03-22T08:46:17;14.60;;;5.67;;
18647;SDS011;9453;50.294;18.644;2024-03-22T08:48:46;12.43;;;5.67;;
18647;SDS011;9453;50.294;18.644;2024-03-22T08:51:12;16.50;;;4.83;;
18647;SDS011;9453;50.294;18.644;2024-03-22T08:53:39;25.47;;;5.50;;
18647;SDS011;9453;50.294;18.644;2024-03-22T08:56:05;8.53;;;4.40;;
18647;SDS011;9453;50.294;18.644;2024-03-22T08:58:33;12.23;;;4.90;;
18647;SDS011;9453;50.294;18.644;2024-03-22T09:01:00;11.00;;;5.20;;
18647;SDS011;9453;50.294;18.644;2024-03-22T09:03:27;13.87;;;5.37;;
18647;SDS011;9453;50.294;18.644;2024-03-22T09:05:52;11.43;;;5.13;;
18647;SDS011;9453;50.294;18.644;2024-03-22T09:08:19;15.70;;;6.07;;
18647;SDS011;9453;50.294;18.644;2024-03-22T09:10:46;17.00;;;5.97;;
18647;SDS011;9453;50.294;18.644;2024-03-22T09:13:13;13.13;;;5.80;;
18647;SDS011;9453;50.294;18.644;2024-03-22T09:15:39;17.93;;;6.10;;
18647;SDS011;9453;50.294;18.644;2024-03-22T09:18:07;17.67;;;6.73;;
18647;SDS011;9453;50.294;18.644;2024-03-22T09:20:33;27.73;;;5.93;;
18647;SDS011;9453;50.294;18.644;2024-03-22T09:23:00;13.87;;;6.23;;
18647;SDS011;9453;50.294;18.644;2024-03-22T09:25:27;11.30;;;5.57;;
18647;SDS011;9453;50.294;18.644;2024-03-22T09:27:53;33.43;;;7.63;;
18647;SDS011;9453;50.294;18.644;2024-03-22T09:30:19;17.33;;;6.57;;
18647;SDS011;9453;50.294;18.644;2024-03-22T09:32:47;12.10;;;6.03;;
18647;SDS011;9453;50.294;18.644;2024-03-22T09:35:14;15.20;;;6.60;;
18647;SDS011;9453;50.294;18.644;2024-03-22T09:37:42;12.80;;;6.23;;
18647;SDS011;9453;50.294;18.644;2024-03-22T09:40:09;10.60;;;5.57;;
18647;SDS011;9453;50.294;18.644;2024-03-22T09:42:37;22.33;;;6.40;;
18647;SDS011;9453;50.294;18.644;2024-03-22T09:45:04;17.03;;;6.43;;
18647;SDS011;9453;50.294;18.644;2024-03-22T09:47:35;14.30;;;5.47;;
18647;SDS011;9453;50.294;18.644;2024-03-22T09:50:02;12.67;;;6.20;;
18647;SDS011;9453;50.294;18.644;2024-03-22T09:52:33;13.30;;;7.07;;
18647;SDS011;9453;50.294;18.644;2024-03-22T09:55:00;14.50;;;6.27;;
18647;SDS011;9453;50.294;18.644;2024-03-22T09:57:29;13.40;;;6.67;;
18647;SDS011;9453;50.294;18.644;2024-03-22T09:59:56;12.63;;;6.37;;
18647;SDS011;9453;50.294;18.644;2024-03-22T10:02:24;42.00;;;7.50;;
18647;SDS011;9453;50.294;18.644;2024-03-22T10:04:51;13.00;;;6.47;;
18647;SDS011;9453;50.294;18.644;2024-03-22T10:07:18;13.77;;;6.27;;
18647;SDS011;9453;50.294;18.644;2024-03-22T10:09:46;10.57;;;5.30;;
18647;SDS011;9453;50.294;18.644;2024-03-22T10:12:12;11.40;;;5.20;;
18647;SDS011;9453;50.294;18.644;2024-03-22T10:14:39;10.37;;;5.40;;
18647;SDS011;9453;50.294;18.644;2024-03-22T10:17:09;10.27;;;5.43;;
18647;SDS011;9453;50.294;18.644;2024-03-22T10:19:35;9.27;;;4.80;;
18647;SDS011;9453;50.294;18.644;2024-03-22T10:22:02;10.80;;;6.25;;
18647;SDS011;9453;50.294;18.644;2024-03-22T10:24:29;12.55;;;5.75;;
18647;SDS011;9453;50.294;18.644;2024-03-22T10:26:58;11.57;;;5.40;;
18647;SDS011;9453;50.294;18.644;2024-03-22T10:29:25;7.15;;;3.85;;
18647;SDS011;9453;50.294;18.644;2024-03-22T10:31:53;10.05;;;5.50;;
18647;SDS011;9453;50.294;18.644;2024-03-22T10:34:20;14.98;;;4.95;;
18647;SDS011;9453;50.294;18.644;2024-03-22T10:36:48;10.65;;;5.07;;
18647;SDS011;9453;50.294;18.644;2024-03-22T10:39:16;12.00;;;5.45;;
18647;SDS011;9453;50.294;18.644;2024-03-22T10:41:44;9.43;;;5.05;;
18647;SDS011;9453;50.294;18.644;2024-03-22T10:44:11;7.90;;;4.32;;
18647;SDS011;9453;50.294;18.644;2024-03-22T10:46:38;9.75;;;5.45;;
18647;SDS011;9453;50.294;18.644;2024-03-22T10:49:10;9.13;;;4.97;;
18647;SDS011;9453;50.294;18.644;2024-03-22T10:51:42;10.88;;;4.38;;
18647;SDS011;9453;50.294;18.644;2024-03-22T10:54:09;7.72;;;4.45;;
18647;SDS011;9453;50.294;18.644;2024-03-22T10:56:39;8.73;;;4.57;;
18647;SDS011;9453;50.294;18.644;2024-03-22T10:59:06;8.48;;;4.88;;
18647;SDS011;9453;50.294;18.644;2024-03-22T11:01:35;8.93;;;3.97;;
18647;SDS011;9453;50.294;18.644;2024-03-22T11:04:05;8.82;;;4.80;;
18647;SDS011;9453;50.294;18.644;2024-03-22T11:06:35;9.95;;;5.28;;
18647;SDS011;9453;50.294;18.644;2024-03-22T11:09:02;8.70;;;5.05;;
18647;SDS011;9453;50.294;18.644;2024-03-22T11:11:30;9.55;;;4.55;;
18647;SDS011;9453;50.294;18.644;2024-03-22T11:13:56;7.93;;;4.10;;
18647;SDS011;9453;50.294;18.644;2024-03-22T11:16:23;8.10;;;4.72;;
18647;SDS011;9453;50.294;18.644;2024-03-22T11:18:51;9.15;;;4.03;;
18647;SDS011;9453;50.294;18.644;2024-03-22T11:21:18;8.60;;;3.88;;
18647;SDS011;9453;50.294;18.644;2024-03-22T11:23:45;8.27;;;3.63;;
18647;SDS011;9453;50.294;18.644;2024-03-22T11:26:12;6.03;;;3.35;;
18647;SDS011;9453;50.294;18.644;2024-03-22T11:28:38;5.88;;;3.28;;
18647;SDS011;9453;50.294;18.644;2024-03-22T11:31:05;7.03;;;3.53;;
18647;SDS011;9453;50.294;18.644;2024-03-22T11:33:31;7.15;;;4.07;;
18647;SDS011;9453;50.294;18.644;2024-03-22T11:35:59;9.63;;;4.60;;
18647;SDS011;9453;50.294;18.644;2024-03-22T11:38:26;8.68;;;4.40;;
18647;SDS011;9453;50.294;18.644;2024-03-22T11:40:53;10.07;;;4.47;;
18647;SDS011;9453;50.294;18.644;2024-03-22T11:43:21;8.60;;;4.20;;
18647;SDS011;9453;50.294;18.644;2024-03-22T11:45:48;7.15;;;4.13;;
18647;SDS011;9453;50.294;18.644;2024-03-22T11:48:14;8.02;;;4.20;;
18647;SDS011;9453;50.294;18.644;2024-03-22T11:50:41;10.90;;;5.30;;
18647;SDS011;9453;50.294;18.644;2024-03-22T11:53:08;8.90;;;5.32;;
18647;SDS011;9453;50.294;18.644;2024-03-22T11:55:35;13.63;;;5.18;;
18647;SDS011;9453;50.294;18.644;2024-03-22T11:58:01;8.73;;;4.50;;
18647;SDS011;9453;50.294;18.644;2024-03-22T12:00:28;9.20;;;4.63;;
18647;SDS011;9453;50.294;18.644;2024-03-22T12:02:54;10.45;;;5.30;;
18647;SDS011;9453;50.294;18.644;2024-03-22T12:05:21;9.20;;;4.75;;
18647;SDS011;9453;50.294;18.644;2024-03-22T12:07:47;9.38;;;4.43;;
18647;SDS011;9453;50.294;18.644;2024-03-22T12:10:15;8.75;;;4.93;;
18647;SDS011;9453;50.294;18.644;2024-03-22T12:12:41;8.45;;;4.47;;
18647;SDS011;9453;50.294;18.644;2024-03-22T12:15:08;7.63;;;4.38;;
18647;SDS011;9453;50.294;18.644;2024-03-22T12:17:34;9.68;;;5.43;;
18647;SDS011;9453;50.294;18.644;2024-03-22T12:20:02;10.82;;;5.90;;
18647;SDS011;9453;50.294;18.644;2024-03-22T12:22:29;7.65;;;4.32;;
18647;SDS011;9453;50.294;18.644;2024-03-22T12:24:56;7.65;;;4.78;;
18647;SDS011;9453;50.294;18.644;2024-03-22T12:27:23;10.05;;;5.13;;
18647;SDS011;9453;50.294;18.644;2024-03-22T12:29:50;8.18;;;4.75;;
18647;SDS011;9453;50.294;18.644;2024-03-22T12:32:16;8.13;;;4.95;;
18647;SDS011;9453;50.294;18.644;2024-03-22T12:34:43;12.70;;;5.18;;
18647;SDS011;9453;50.294;18.644;2024-03-22T12:37:09;8.85;;;4.90;;
18647;SDS011;9453;50.294;18.644;2024-03-22T12:39:36;9.75;;;4.63;;
18647;SDS011;9453;50.294;18.644;2024-03-22T12:42:02;9.40;;;5.00;;
18647;SDS011;9453;50.294;18.644;2024-03-22T12:44:30;8.73;;;4.70;;
18647;SDS011;9453;50.294;18.644;2024-03-22T12:46:56;9.25;;;4.65;;
18647;SDS011;9453;50.294;18.644;2024-03-22T12:49:24;8.43;;;4.68;;
18647;SDS011;9453;50.294;18.644;2024-03-22T12:51:50;14.23;;;5.05;;
18647;SDS011;9453;50.294;18.644;2024-03-22T12:54:17;10.70;;;5.20;;
18647;SDS011;9453;50.294;18.644;2024-03-22T12:56:43;9.52;;;5.28;;
18647;SDS011;9453;50.294;18.644;2024-03-22T12:59:11;10.02;;;5.45;;
18647;SDS011;9453;50.294;18.644;2024-03-22T13:01:38;11.35;;;6.05;;
18647;SDS011;9453;50.294;18.644;2024-03-22T13:04:05;10.68;;;5.22;;
18647;SDS011;9453;50.294;18.644;2024-03-22T13:06:31;10.70;;;6.10;;
18647;SDS011;9453;50.294;18.644;2024-03-22T13:08:59;10.65;;;6.00;;
18647;SDS011;9453;50.294;18.644;2024-03-22T13:11:25;10.50;;;5.80;;
18647;SDS011;9453;50.294;18.644;2024-03-22T13:13:52;10.48;;;6.28;;
18647;SDS011;9453;50.294;18.644;2024-03-22T13:16:18;11.15;;;6.72;;
18647;SDS011;9453;50.294;18.644;2024-03-22T13:18:47;14.73;;;8.30;;
18647;SDS011;9453;50.294;18.644;2024-03-22T13:21:13;11.30;;;6.72;;
18647;SDS011;9453;50.294;18.644;2024-03-22T13:23:40;15.32;;;6.63;;
18647;SDS011;9453;50.294;18.644;2024-03-22T13:26:06;11.88;;;5.90;;
18647;SDS011;9453;50.294;18.644;2024-03-22T13:28:32;13.90;;;6.85;;
18647;SDS011;9453;50.294;18.644;2024-03-22T13:31:01;14.10;;;7.25;;
18647;SDS011;9453;50.294;18.644;2024-03-22T13:33:31;11.05;;;6.03;;
18647;SDS011;9453;50.294;18.644;2024-03-22T13:35:59;13.20;;;6.93;;
18647;SDS011;9453;50.294;18.644;2024-03-22T13:38:26;12.13;;;5.82;;
18647;SDS011;9453;50.294;18.644;2024-03-22T13:40:53;13.07;;;5.68;;
18647;SDS011;9453;50.294;18.644;2024-03-22T13:43:21;11.43;;;5.22;;
18647;SDS011;9453;50.294;18.644;2024-03-22T13:45:47;11.35;;;5.75;;
18647;SDS011;9453;50.294;18.644;2024-03-22T13:48:19;14.00;;;6.43;;
18647;SDS011;9453;50.294;18.644;2024-03-22T13:50:49;12.52;;;6.80;;
18647;SDS011;9453;50.294;18.644;2024-03-22T13:53:17;12.10;;;5.88;;
18647;SDS011;9453;50.294;18.644;2024-03-22T13:55:43;10.13;;;5.63;;
18647;SDS011;9453;50.294;18.644;2024-03-22T13:58:11;9.02;;;5.25;;
18647;SDS011;9453;50.294;18.644;2024-03-22T14:00:37;14.52;;;7.00;;
18647;SDS011;9453;50.294;18.644;2024-03-22T14:03:05;14.45;;;6.63;;
18647;SDS011;9453;50.294;18.644;2024-03-22T14:05:31;12.38;;;6.35;;
18647;SDS011;9453;50.294;18.644;2024-03-22T14:07:58;9.90;;;5.65;;
18647;SDS011;9453;50.294;18.644;2024-03-22T14:10:25;16.67;;;9.10;;
18647;SDS011;9453;50.294;18.644;2024-03-22T14:12:54;17.17;;;8.50;;
18647;SDS011;9453;50.294;18.644;2024-03-22T14:15:21;16.42;;;8.73;;
18647;SDS011;9453;50.294;18.644;2024-03-22T14:17:50;21.65;;;11.00;;
18647;SDS011;9453;50.294;18.644;2024-03-22T14:20:16;18.98;;;7.80;;
18647;SDS011;9453;50.294;18.644;2024-03-22T14:22:42;14.25;;;7.53;;
18647;SDS011;9453;50.294;18.644;2024-03-22T14:25:09;14.52;;;7.97;;
18647;SDS011;9453;50.294;18.644;2024-03-22T14:27:36;15.23;;;7.75;;
18647;SDS011;9453;50.294;18.644;2024-03-22T14:30:05;12.50;;;7.03;;
18647;SDS011;9453;50.294;18.644;2024-03-22T14:32:33;15.48;;;8.18;;
18647;SDS011;9453;50.294;18.644;2024-03-22T14:35:00;15.23;;;7.68;;
18647;SDS011;9453;50.294;18.644;2024-03-22T14:37:26;22.08;;;10.10;;
18647;SDS011;9453;50.294;18.644;2024-03-22T14:39:52;53.55;;;19.98;;
18647;SDS011;9453;50.294;18.644;2024-03-22T14:42:18;45.40;;;17.48;;
18647;SDS011;9453;50.294;18.644;2024-03-22T14:44:47;33.15;;;14.40;;
18647;SDS011;9453;50.294;18.644;2024-03-22T14:47:13;29.27;;;11.40;;
18647;SDS011;9453;50.294;18.644;2024-03-22T14:49:39;22.58;;;10.18;;
18647;SDS011;9453;50.294;18.644;2024-03-22T14:52:06;17.20;;;8.13;;
18647;SDS011;9453;50.294;18.644;2024-03-22T14:54:34;14.95;;;8.35;;
18647;SDS011;9453;50.294;18.644;2024-03-22T14:56:59;15.30;;;7.18;;
18647;SDS011;9453;50.294;18.644;2024-03-22T14:59:27;18.83;;;9.18;;
18647;SDS011;9453;50.294;18.644;2024-03-22T15:01:54;25.83;;;10.80;;
18647;SDS011;9453;50.294;18.644;2024-03-22T15:04:21;21.98;;;10.07;;
18647;SDS011;9453;50.294;18.644;2024-03-22T15:06:47;24.38;;;10.20;;
18647;SDS011;9453;50.294;18.644;2024-03-22T15:09:15;30.35;;;11.38;;
18647;SDS011;9453;50.294;18.644;2024-03-22T15:11:43;29.55;;;11.73;;
18647;SDS011;9453;50.294;18.644;2024-03-22T15:14:10;24.08;;;9.63;;
18647;SDS011;9453;50.294;18.644;2024-03-22T15:16:36;16.52;;;7.43;;
18647;SDS011;9453;50.294;18.644;2024-03-22T15:19:04;16.73;;;8.88;;
18647;SDS011;9453;50.294;18.644;2024-03-22T15:21:30;16.92;;;8.32;;
18647;SDS011;9453;50.294;18.644;2024-03-22T15:23:57;14.50;;;7.68;;
18647;SDS011;9453;50.294;18.644;2024-03-22T15:26:23;14.48;;;7.32;;
18647;SDS011;9453;50.294;18.644;2024-03-22T15:28:50;15.98;;;8.13;;
18647;SDS011;9453;50.294;18.644;2024-03-22T15:31:16;15.10;;;7.65;;
18647;SDS011;9453;50.294;18.644;2024-03-22T15:33:43;15.63;;;7.32;;
18647;SDS011;9453;50.294;18.644;2024-03-22T15:36:10;14.43;;;6.80;;
18647;SDS011;9453;50.294;18.644;2024-03-22T15:38:37;17.80;;;8.35;;
18647;SDS011;9453;50.294;18.644;2024-03-22T15:41:03;13.82;;;6.28;;
18647;SDS011;9453;50.294;18.644;2024-03-22T15:43:30;13.00;;;6.72;;
18647;SDS011;9453;50.294;18.644;2024-03-22T15:45:56;14.75;;;8.10;;
18647;SDS011;9453;50.294;18.644;2024-03-22T15:48:23;15.82;;;7.65;;
18647;SDS011;9453;50.294;18.644;2024-03-22T15:50:49;14.18;;;8.10;;
18647;SDS011;9453;50.294;18.644;2024-03-22T15:53:18;13.95;;;7.07;;
18647;SDS011;9453;50.294;18.644;2024-03-22T15:55:43;12.30;;;6.75;;
18647;SDS011;9453;50.294;18.644;2024-03-22T15:58:10;11.52;;;6.90;;
18647;SDS011;9453;50.294;18.644;2024-03-22T16:00:36;13.30;;;6.38;;
18647;SDS011;9453;50.294;18.644;2024-03-22T16:03:04;12.52;;;5.97;;
18647;SDS011;9453;50.294;18.644;2024-03-22T16:05:30;12.77;;;6.25;;
18647;SDS011;9453;50.294;18.644;2024-03-22T16:07:57;11.02;;;6.20;;
18647;SDS011;9453;50.294;18.644;2024-03-22T16:10:24;14.57;;;7.03;;
18647;SDS011;9453;50.294;18.644;2024-03-22T16:12:51;16.67;;;8.02;;
18647;SDS011;9453;50.294;18.644;2024-03-22T16:15:17;20.70;;;9.70;;
18647;SDS011;9453;50.294;18.644;2024-03-22T16:17:45;25.38;;;11.77;;
18647;SDS011;9453;50.294;18.644;2024-03-22T16:20:11;24.10;;;10.18;;
18647;SDS011;9453;50.294;18.644;2024-03-22T16:22:38;23.35;;;10.85;;
18647;SDS011;9453;50.294;18.644;2024-03-22T16:25:04;22.08;;;10.52;;
18647;SDS011;9453;50.294;18.644;2024-03-22T16:27:33;17.58;;;8.63;;
18647;SDS011;9453;50.294;18.644;2024-03-22T16:29:59;21.25;;;9.73;;
18647;SDS011;9453;50.294;18.644;2024-03-22T16:32:26;30.52;;;12.15;;
18647;SDS011;9453;50.294;18.644;2024-03-22T16:34:52;55.83;;;19.50;;
18647;SDS011;9453;50.294;18.644;2024-03-22T16:37:19;68.13;;;26.58;;
18647;SDS011;9453;50.294;18.644;2024-03-22T16:39:45;72.22;;;26.10;;
18647;SDS011;9453;50.294;18.644;2024-03-22T16:42:12;58.70;;;22.13;;
18647;SDS011;9453;50.294;18.644;2024-03-22T16:44:39;46.00;;;20.20;;
18647;SDS011;9453;50.294;18.644;2024-03-22T16:47:06;42.70;;;17.38;;
18647;SDS011;9453;50.294;18.644;2024-03-22T16:49:32;33.13;;;15.98;;
18647;SDS011;9453;50.294;18.644;2024-03-22T16:52:00;32.33;;;15.10;;
18647;SDS011;9453;50.294;18.644;2024-03-22T16:54:26;32.20;;;14.40;;
18647;SDS011;9453;50.294;18.644;2024-03-22T16:56:53;33.78;;;14.80;;
18647;SDS011;9453;50.294;18.644;2024-03-22T16:59:20;30.88;;;13.55;;
18647;SDS011;9453;50.294;18.644;2024-03-22T17:01:48;34.97;;;13.73;;
18647;SDS011;9453;50.294;18.644;2024-03-22T17:04:15;31.27;;;15.20;;
18647;SDS011;9453;50.294;18.644;2024-03-22T17:06:43;33.80;;;15.88;;
18647;SDS011;9453;50.294;18.644;2024-03-22T17:09:09;39.70;;;16.80;;
18647;SDS011;9453;50.294;18.644;2024-03-22T17:11:36;35.13;;;15.70;;
18647;SDS011;9453;50.294;18.644;2024-03-22T17:14:02;40.40;;;17.67;;
18647;SDS011;9453;50.294;18.644;2024-03-22T17:16:29;30.92;;;14.07;;
18647;SDS011;9453;50.294;18.644;2024-03-22T17:18:57;29.55;;;13.35;;
18647;SDS011;9453;50.294;18.644;2024-03-22T17:21:24;24.67;;;11.48;;
18647;SDS011;9453;50.294;18.644;2024-03-22T17:23:50;24.30;;;12.20;;
18647;SDS011;9453;50.294;18.644;2024-03-22T17:26:17;21.33;;;10.70;;
18647;SDS011;9453;50.294;18.644;2024-03-22T17:28:43;21.65;;;10.85;;
18647;SDS011;9453;50.294;18.644;2024-03-22T17:31:10;25.33;;;12.75;;
18647;SDS011;9453;50.294;18.644;2024-03-22T17:33:37;22.17;;;11.30;;
18647;SDS011;9453;50.294;18.644;2024-03-22T17:36:06;19.25;;;10.10;;
18647;SDS011;9453;50.294;18.644;2024-03-22T17:38:32;21.67;;;9.93;;
18647;SDS011;9453;50.294;18.644;2024-03-22T17:40:59;23.60;;;11.00;;
18647;SDS011;9453;50.294;18.644;2024-03-22T17:43:26;19.50;;;9.45;;
18647;SDS011;9453;50.294;18.644;2024-03-22T17:45:56;20.98;;;10.40;;
18647;SDS011;9453;50.294;18.644;2024-03-22T17:48:22;19.97;;;10.57;;
18647;SDS011;9453;50.294;18.644;2024-03-22T17:50:49;22.58;;;9.88;;
18647;SDS011;9453;50.294;18.644;2024-03-22T17:53:17;19.45;;;8.98;;
18647;SDS011;9453;50.294;18.644;2024-03-22T17:55:44;16.55;;;8.60;;
18647;SDS011;9453;50.294;18.644;2024-03-22T17:58:10;18.33;;;9.32;;
18647;SDS011;9453;50.294;18.644;2024-03-22T18:00:37;17.70;;;8.63;;
18647;SDS011;9453;50.294;18.644;2024-03-22T18:03:03;17.05;;;8.82;;
18647;SDS011;9453;50.294;18.644;2024-03-22T18:05:30;17.83;;;8.00;;
18647;SDS011;9453;50.294;18.644;2024-03-22T18:07:57;18.70;;;9.27;;
18647;SDS011;9453;50.294;18.644;2024-03-22T18:10:25;14.97;;;8.20;;
18647;SDS011;9453;50.294;18.644;2024-03-22T18:12:52;18.33;;;8.23;;
18647;SDS011;9453;50.294;18.644;2024-03-22T18:15:20;20.07;;;8.77;;
18647;SDS011;9453;50.294;18.644;2024-03-22T18:17:47;17.30;;;8.93;;
18647;SDS011;9453;50.294;18.644;2024-03-22T18:20:14;13.97;;;7.87;;
18647;SDS011;9453;50.294;18.644;2024-03-22T18:22:43;16.43;;;7.60;;
18647;SDS011;9453;50.294;18.644;2024-03-22T18:25:10;14.97;;;7.77;;
18647;SDS011;9453;50.294;18.644;2024-03-22T18:27:38;18.83;;;9.23;;
18647;SDS011;9453;50.294;18.644;2024-03-22T18:30:05;18.10;;;8.13;;
18647;SDS011;9453;50.294;18.644;2024-03-22T18:32:33;19.20;;;8.00;;
18647;SDS011;9453;50.294;18.644;2024-03-22T18:35:00;16.05;;;7.95;;
18647;SDS011;9453;50.294;18.644;2024-03-22T18:37:27;15.63;;;7.73;;
18647;SDS011;9453;50.294;18.644;2024-03-22T18:39:54;12.93;;;6.70;;
18647;SDS011;9453;50.294;18.644;2024-03-22T18:42:20;12.32;;;7.03;;
18647;SDS011;9453;50.294;18.644;2024-03-22T18:44:48;15.30;;;7.30;;
18647;SDS011;9453;50.294;18.644;2024-03-22T18:47:14;14.48;;;6.65;;
18647;SDS011;9453;50.294;18.644;2024-03-22T18:49:40;12.87;;;6.47;;
18647;SDS011;9453;50.294;18.644;2024-03-22T18:52:07;14.65;;;7.38;;
18647;SDS011;9453;50.294;18.644;2024-03-22T18:54:34;11.18;;;6.00;;
18647;SDS011;9453;50.294;18.644;2024-03-22T18:57:00;11.23;;;6.05;;
18647;SDS011;9453;50.294;18.644;2024-03-22T18:59:28;12.13;;;5.63;;
18647;SDS011;9453;50.294;18.644;2024-03-22T19:01:57;11.27;;;5.60;;
18647;SDS011;9453;50.294;18.644;2024-03-22T19:04:23;10.77;;;5.43;;
18647;SDS011;9453;50.294;18.644;2024-03-22T19:06:49;9.93;;;5.37;;
18647;SDS011;9453;50.294;18.644;2024-03-22T19:09:15;10.17;;;4.67;;
18647;SDS011;9453;50.294;18.644;2024-03-22T19:11:42;10.35;;;4.38;;
18647;SDS011;9453;50.294;18.644;2024-03-22T19:14:08;8.73;;;4.33;;
18647;SDS011;9453;50.294;18.644;2024-03-22T19:16:35;11.03;;;4.93;;
18647;SDS011;9453;50.294;18.644;2024-03-22T19:19:02;8.80;;;4.63;;
18647;SDS011;9453;50.294;18.644;2024-03-22T19:21:29;10.93;;;4.80;;
18647;SDS011;9453;50.294;18.644;2024-03-22T19:23:55;7.90;;;4.00;;
18647;SDS011;9453;50.294;18.644;2024-03-22T19:26:23;9.15;;;4.50;;
18647;SDS011;9453;50.294;18.644;2024-03-22T19:28:49;8.33;;;4.40;;
18647;SDS011;9453;50.294;18.644;2024-03-22T19:31:16;9.32;;;4.18;;
18647;SDS011;9453;50.294;18.644;2024-03-22T19:33:42;8.63;;;4.63;;